GFL36M KORF-KCLE
Flight info
| Callsign | GFL36M |
|---|---|
| Flight time | N/A |
| Altitude | 24000 |
| Route | NUTIY1 KELLE MOL AHTIY/N0257F150 EWC/N0256F160 BSV |
| Aircraft | BE20/M-VGDW/C |
Departure
| Time | 2026-05-07 13:42 |
|---|---|
| Airport | Norfolk International Airport (KORF) |
Arrival
| Time | N/A |
|---|---|
| Airport | Cleveland Hopkins International Airport (KCLE) |
| Time | Latitude | Longitude | Altitude | Speed | Heading |
|---|---|---|---|---|---|
| 2026-05-07 13:38 | 36.88753 | -76.20075 | -1 ft | 0 kts | 47° |
| 2026-05-07 13:40 | 36.88784 | -76.20069 | -1 ft | 15 kts | 332° |
| 2026-05-07 13:40 | 36.88819 | -76.20165 | -1 ft | 10 kts | 288° |
| 2026-05-07 13:40 | 36.88853 | -76.20289 | -1 ft | 19 kts | 292° |
| 2026-05-07 13:41 | 36.88885 | -76.20397 | -1 ft | 9 kts | 289° |
| 2026-05-07 13:41 | 36.88911 | -76.20481 | 1 ft | 13 kts | 295° |
| 2026-05-07 13:41 | 36.88949 | -76.20480 | 1 ft | 7 kts | 39° |
| 2026-05-07 13:41 | 36.89002 | -76.20431 | 2 ft | 16 kts | 38° |
| 2026-05-07 13:42 | 36.89275 | -76.20164 | 4 ft | 84 kts | 38° |
| 2026-05-07 13:42 | 36.89835 | -76.19604 | 308 ft | 110 kts | 33° |
| 2026-05-07 13:42 | 36.90459 | -76.18996 | 879 ft | 123 kts | 35° |
| 2026-05-07 13:42 | 36.91054 | -76.18400 | 1935 ft | 91 kts | 40° |
| 2026-05-07 13:43 | 36.91566 | -76.17984 | 2468 ft | 111 kts | 11° |
| 2026-05-07 13:43 | 36.92528 | -76.18378 | 2337 ft | 171 kts | 319° |
| 2026-05-07 13:43 | 36.92922 | -76.19708 | 3229 ft | 164 kts | 268° |
| 2026-05-07 13:43 | 36.92786 | -76.21064 | 4059 ft | 152 kts | 272° |
| 2026-05-07 13:44 | 36.92865 | -76.22343 | 4919 ft | 143 kts | 280° |
| 2026-05-07 13:44 | 36.92995 | -76.23554 | 5732 ft | 138 kts | 279° |
| 2026-05-07 13:44 | 36.93137 | -76.24744 | 6506 ft | 138 kts | 278° |
| 2026-05-07 13:44 | 36.93283 | -76.25944 | 7184 ft | 142 kts | 278° |
| 2026-05-07 13:45 | 36.93433 | -76.27166 | 7874 ft | 144 kts | 277° |
| 2026-05-07 13:45 | 36.93587 | -76.28410 | 8574 ft | 145 kts | 276° |
| 2026-05-07 13:45 | 36.93744 | -76.29669 | 9277 ft | 148 kts | 276° |
| 2026-05-07 13:45 | 36.93901 | -76.30949 | 9993 ft | 150 kts | 275° |
| 2026-05-07 13:46 | 36.94062 | -76.32258 | 10621 ft | 154 kts | 274° |
| 2026-05-07 13:46 | 36.94225 | -76.33593 | 11269 ft | 156 kts | 273° |
| 2026-05-07 13:46 | 36.94391 | -76.34940 | 11958 ft | 158 kts | 272° |
| 2026-05-07 13:46 | 36.94557 | -76.36299 | 12663 ft | 158 kts | 271° |
| 2026-05-07 13:47 | 36.94633 | -76.37637 | 13315 ft | 156 kts | 262° |
| 2026-05-07 13:47 | 36.94618 | -76.39010 | 13936 ft | 157 kts | 262° |
| 2026-05-07 13:47 | 36.94614 | -76.40347 | 14518 ft | 154 kts | 262° |
| 2026-05-07 13:47 | 36.94608 | -76.41680 | 15088 ft | 153 kts | 262° |
| 2026-05-07 13:48 | 36.94602 | -76.42989 | 15677 ft | 149 kts | 261° |
| 2026-05-07 13:48 | 36.94595 | -76.44283 | 16227 ft | 148 kts | 261° |
| 2026-05-07 13:48 | 36.94589 | -76.45553 | 16791 ft | 145 kts | 261° |
| 2026-05-07 13:48 | 36.94582 | -76.46813 | 17319 ft | 144 kts | 261° |
| 2026-05-07 13:49 | 36.94576 | -76.48050 | 17856 ft | 142 kts | 260° |
| 2026-05-07 13:49 | 36.94569 | -76.49276 | 18353 ft | 139 kts | 260° |
| 2026-05-07 13:49 | 36.94562 | -76.50478 | 18799 ft | 138 kts | 261° |
| 2026-05-07 13:49 | 36.94554 | -76.51670 | 19213 ft | 136 kts | 261° |
| 2026-05-07 13:50 | 36.94550 | -76.52449 | 19499 ft | 135 kts | 262° |
| 2026-05-07 13:50 | 36.94542 | -76.53623 | 19810 ft | 138 kts | 261° |
| 2026-05-07 13:50 | 36.94563 | -76.55248 | 20269 ft | 142 kts | 270° |
| 2026-05-07 13:50 | 36.94698 | -76.56052 | 20530 ft | 142 kts | 271° |
| 2026-05-07 13:51 | 36.94893 | -76.57250 | 20891 ft | 141 kts | 270° |
| 2026-05-07 13:51 | 36.95086 | -76.58452 | 21272 ft | 139 kts | 270° |
| 2026-05-07 13:51 | 36.95274 | -76.59633 | 21645 ft | 138 kts | 270° |
| 2026-05-07 13:51 | 36.95459 | -76.60807 | 22060 ft | 135 kts | 273° |
| 2026-05-07 13:52 | 36.95643 | -76.61933 | 22503 ft | 130 kts | 273° |
| 2026-05-07 13:52 | 36.95819 | -76.63046 | 22834 ft | 131 kts | 274° |
| 2026-05-07 13:52 | 36.95995 | -76.64158 | 23169 ft | 130 kts | 274° |
| 2026-05-07 13:52 | 36.96169 | -76.65252 | 23531 ft | 128 kts | 274° |
| 2026-05-07 13:53 | 36.96339 | -76.66328 | 23784 ft | 128 kts | 274° |
| 2026-05-07 13:53 | 36.96512 | -76.67417 | 24014 ft | 130 kts | 274° |
| 2026-05-07 13:53 | 36.96695 | -76.68591 | 24028 ft | 144 kts | 274° |
| 2026-05-07 13:53 | 36.96898 | -76.69872 | 24034 ft | 156 kts | 275° |
| 2026-05-07 13:54 | 36.97116 | -76.71239 | 24033 ft | 165 kts | 275° |
| 2026-05-07 13:54 | 36.97344 | -76.72673 | 24031 ft | 171 kts | 275° |
| 2026-05-07 13:54 | 36.97579 | -76.74150 | 24032 ft | 175 kts | 275° |
| 2026-05-07 13:54 | 36.97819 | -76.75658 | 24028 ft | 178 kts | 275° |
| 2026-05-07 13:55 | 36.98061 | -76.77191 | 24032 ft | 180 kts | 276° |
| 2026-05-07 13:55 | 36.98333 | -76.78724 | 24029 ft | 182 kts | 280° |
| 2026-05-07 13:55 | 36.98707 | -76.80240 | 24031 ft | 183 kts | 279° |
| 2026-05-07 13:55 | 36.99069 | -76.81768 | 24030 ft | 183 kts | 279° |
| 2026-05-07 13:56 | 36.99433 | -76.83298 | 24030 ft | 184 kts | 280° |
| 2026-05-07 13:56 | 36.99795 | -76.84811 | 24031 ft | 184 kts | 280° |
| 2026-05-07 13:56 | 37.00162 | -76.86349 | 24029 ft | 186 kts | 280° |
| 2026-05-07 13:56 | 37.00535 | -76.87928 | 24022 ft | 193 kts | 277° |
| 2026-05-07 13:57 | 37.00927 | -76.89568 | 24029 ft | 199 kts | 278° |
| 2026-05-07 13:57 | 37.01326 | -76.91231 | 24026 ft | 201 kts | 278° |
| 2026-05-07 13:57 | 37.01728 | -76.92913 | 24028 ft | 202 kts | 278° |
| 2026-05-07 13:57 | 37.02130 | -76.94599 | 24028 ft | 202 kts | 278° |
| 2026-05-07 13:58 | 37.02531 | -76.96284 | 24027 ft | 202 kts | 278° |
| 2026-05-07 13:58 | 37.02931 | -76.97967 | 24029 ft | 202 kts | 278° |
| 2026-05-07 13:58 | 37.03333 | -76.99658 | 24026 ft | 203 kts | 278° |
| 2026-05-07 13:58 | 37.03734 | -77.01349 | 24027 ft | 203 kts | 278° |
| 2026-05-07 13:59 | 37.04138 | -77.03050 | 24028 ft | 204 kts | 278° |
| 2026-05-07 13:59 | 37.04541 | -77.04750 | 24026 ft | 204 kts | 278° |
| 2026-05-07 13:59 | 37.04946 | -77.06459 | 24028 ft | 204 kts | 278° |
| 2026-05-07 13:59 | 37.05261 | -77.08122 | 24026 ft | 201 kts | 274° |
| 2026-05-07 14:00 | 37.05570 | -77.09852 | 24026 ft | 201 kts | 275° |
| 2026-05-07 14:00 | 37.05876 | -77.11534 | 24027 ft | 201 kts | 275° |
| 2026-05-07 14:00 | 37.06181 | -77.13239 | 24025 ft | 201 kts | 275° |
| 2026-05-07 14:00 | 37.06488 | -77.14968 | 24023 ft | 201 kts | 275° |
| 2026-05-07 14:01 | 37.06787 | -77.16653 | 24019 ft | 201 kts | 275° |
| 2026-05-07 14:01 | 37.07090 | -77.18359 | 24019 ft | 201 kts | 275° |
| 2026-05-07 14:01 | 37.07394 | -77.20067 | 24020 ft | 201 kts | 275° |
| 2026-05-07 14:01 | 37.07697 | -77.21780 | 24021 ft | 202 kts | 275° |
| 2026-05-07 14:02 | 37.08001 | -77.23492 | 24026 ft | 201 kts | 273° |
| 2026-05-07 14:02 | 37.08304 | -77.25204 | 24026 ft | 201 kts | 273° |
| 2026-05-07 14:02 | 37.08606 | -77.26912 | 24043 ft | 201 kts | 273° |
| 2026-05-07 14:02 | 37.08908 | -77.28621 | 24045 ft | 201 kts | 273° |
| 2026-05-07 14:03 | 37.09210 | -77.30333 | 24046 ft | 201 kts | 273° |
| 2026-05-07 14:03 | 37.09511 | -77.32039 | 24048 ft | 201 kts | 273° |
| 2026-05-07 14:03 | 37.09812 | -77.33745 | 24048 ft | 200 kts | 273° |
| 2026-05-07 14:03 | 37.10112 | -77.35447 | 24050 ft | 200 kts | 273° |
| 2026-05-07 14:04 | 37.10410 | -77.37143 | 24050 ft | 199 kts | 273° |
| 2026-05-07 14:04 | 37.10708 | -77.38839 | 24050 ft | 199 kts | 273° |
| 2026-05-07 14:04 | 37.11001 | -77.40504 | 24053 ft | 198 kts | 273° |
| 2026-05-07 14:04 | 37.11296 | -77.42190 | 24050 ft | 198 kts | 273° |
| 2026-05-07 14:05 | 37.11591 | -77.43868 | 24053 ft | 197 kts | 273° |
| 2026-05-07 14:05 | 37.11885 | -77.45545 | 24052 ft | 196 kts | 273° |
| 2026-05-07 14:05 | 37.12177 | -77.47213 | 24051 ft | 196 kts | 273° |
| 2026-05-07 14:05 | 37.12468 | -77.48879 | 24049 ft | 195 kts | 273° |
| 2026-05-07 14:06 | 37.12758 | -77.50543 | 24048 ft | 195 kts | 272° |
| 2026-05-07 14:06 | 37.13049 | -77.52209 | 24048 ft | 195 kts | 272° |
| 2026-05-07 14:06 | 37.13338 | -77.53870 | 24049 ft | 195 kts | 272° |
| 2026-05-07 14:06 | 37.13628 | -77.55533 | 24049 ft | 195 kts | 272° |
| 2026-05-07 14:07 | 37.13918 | -77.57194 | 24048 ft | 195 kts | 272° |
| 2026-05-07 14:07 | 37.14205 | -77.58848 | 24047 ft | 194 kts | 272° |
| 2026-05-07 14:07 | 37.14491 | -77.60487 | 24059 ft | 190 kts | 272° |
| 2026-05-07 14:07 | 37.14771 | -77.62080 | 24053 ft | 185 kts | 271° |
| 2026-05-07 14:08 | 37.15040 | -77.63638 | 24049 ft | 181 kts | 271° |
| 2026-05-07 14:08 | 37.15301 | -77.65150 | 24046 ft | 179 kts | 271° |
| 2026-05-07 14:08 | 37.15562 | -77.66665 | 24041 ft | 177 kts | 271° |
| 2026-05-07 14:08 | 37.15822 | -77.68167 | 24037 ft | 176 kts | 271° |
| 2026-05-07 14:09 | 37.16080 | -77.69659 | 24037 ft | 175 kts | 271° |
| 2026-05-07 14:09 | 37.16337 | -77.71149 | 24035 ft | 174 kts | 271° |
| 2026-05-07 14:09 | 37.16592 | -77.72628 | 24030 ft | 174 kts | 271° |
| 2026-05-07 14:09 | 37.16847 | -77.74106 | 24024 ft | 173 kts | 271° |
| 2026-05-07 14:10 | 37.17101 | -77.75581 | 24031 ft | 173 kts | 271° |
| 2026-05-07 14:10 | 37.17354 | -77.77050 | 24023 ft | 172 kts | 271° |
| 2026-05-07 14:10 | 37.17607 | -77.78514 | 24029 ft | 171 kts | 271° |
| 2026-05-07 14:10 | 37.17860 | -77.79974 | 24022 ft | 172 kts | 272° |
| 2026-05-07 14:11 | 37.18414 | -77.81371 | 24031 ft | 188 kts | 288° |
| 2026-05-07 14:11 | 37.19180 | -77.82705 | 24031 ft | 189 kts | 288° |
| 2026-05-07 14:11 | 37.19943 | -77.84047 | 24033 ft | 189 kts | 288° |
| 2026-05-07 14:11 | 37.20703 | -77.85396 | 24035 ft | 189 kts | 288° |
| 2026-05-07 14:12 | 37.21453 | -77.86726 | 24024 ft | 189 kts | 288° |
| 2026-05-07 14:12 | 37.22212 | -77.88072 | 24034 ft | 189 kts | 288° |
| 2026-05-07 14:12 | 37.22970 | -77.89418 | 24022 ft | 189 kts | 288° |
| 2026-05-07 14:12 | 37.23727 | -77.90763 | 24034 ft | 189 kts | 288° |
| 2026-05-07 14:13 | 37.24485 | -77.92110 | 24032 ft | 189 kts | 288° |
| 2026-05-07 14:13 | 37.25245 | -77.93458 | 24031 ft | 188 kts | 288° |
| 2026-05-07 14:13 | 37.25999 | -77.94798 | 24027 ft | 188 kts | 288° |
| 2026-05-07 14:13 | 37.26753 | -77.96141 | 24048 ft | 188 kts | 288° |
| 2026-05-07 14:14 | 37.27510 | -77.97487 | 24036 ft | 189 kts | 288° |
| 2026-05-07 14:14 | 37.28267 | -77.98834 | 24035 ft | 189 kts | 288° |
| 2026-05-07 14:14 | 37.29022 | -78.00179 | 24037 ft | 189 kts | 288° |
| 2026-05-07 14:14 | 37.29778 | -78.01527 | 24044 ft | 189 kts | 288° |
| 2026-05-07 14:15 | 37.30537 | -78.02879 | 24044 ft | 189 kts | 288° |
| 2026-05-07 14:15 | 37.31297 | -78.04235 | 24043 ft | 190 kts | 288° |
| 2026-05-07 14:15 | 37.32058 | -78.05593 | 24045 ft | 191 kts | 288° |
| 2026-05-07 14:15 | 37.32822 | -78.06955 | 24044 ft | 191 kts | 288° |
| 2026-05-07 14:16 | 37.33591 | -78.08328 | 24043 ft | 192 kts | 288° |
| 2026-05-07 14:16 | 37.34361 | -78.09704 | 24046 ft | 193 kts | 288° |
| 2026-05-07 14:16 | 37.35134 | -78.11085 | 24048 ft | 194 kts | 288° |
| 2026-05-07 14:16 | 37.35911 | -78.12475 | 24044 ft | 196 kts | 287° |
| 2026-05-07 14:17 | 37.36693 | -78.13871 | 24045 ft | 195 kts | 287° |
| 2026-05-07 14:17 | 37.37473 | -78.15264 | 24046 ft | 194 kts | 287° |
| 2026-05-07 14:17 | 37.38249 | -78.16651 | 24045 ft | 193 kts | 287° |
| 2026-05-07 14:17 | 37.39021 | -78.18036 | 24045 ft | 194 kts | 287° |
| 2026-05-07 14:18 | 37.39796 | -78.19423 | 24044 ft | 194 kts | 287° |
| 2026-05-07 14:18 | 37.40573 | -78.20818 | 24045 ft | 195 kts | 287° |
| 2026-05-07 14:18 | 37.41354 | -78.22219 | 24046 ft | 196 kts | 287° |
| 2026-05-07 14:18 | 37.42139 | -78.23624 | 24048 ft | 196 kts | 287° |
| 2026-05-07 14:19 | 37.42914 | -78.25016 | 24046 ft | 197 kts | 287° |
| 2026-05-07 14:19 | 37.43704 | -78.26433 | 24047 ft | 198 kts | 288° |
| 2026-05-07 14:19 | 37.44494 | -78.27851 | 24045 ft | 198 kts | 288° |
| 2026-05-07 14:19 | 37.45287 | -78.29273 | 24046 ft | 198 kts | 288° |
| 2026-05-07 14:20 | 37.46077 | -78.30692 | 24045 ft | 198 kts | 287° |
| 2026-05-07 14:20 | 37.46866 | -78.32112 | 24046 ft | 198 kts | 288° |
| 2026-05-07 14:20 | 37.47654 | -78.33528 | 24044 ft | 197 kts | 287° |
| 2026-05-07 14:20 | 37.48439 | -78.34941 | 24043 ft | 197 kts | 287° |
| 2026-05-07 14:21 | 37.49222 | -78.36350 | 24045 ft | 196 kts | 287° |
| 2026-05-07 14:21 | 37.50004 | -78.37757 | 24044 ft | 195 kts | 287° |
| 2026-05-07 14:21 | 37.50780 | -78.39156 | 24036 ft | 195 kts | 287° |
| 2026-05-07 14:21 | 37.51557 | -78.40559 | 24036 ft | 195 kts | 287° |
| 2026-05-07 14:22 | 37.52335 | -78.41962 | 24035 ft | 196 kts | 287° |
| 2026-05-07 14:22 | 37.53115 | -78.43369 | 24037 ft | 196 kts | 287° |
| 2026-05-07 14:22 | 37.53898 | -78.44782 | 24039 ft | 197 kts | 287° |
| 2026-05-07 14:22 | 37.54675 | -78.46186 | 24040 ft | 198 kts | 287° |
| 2026-05-07 14:23 | 37.55466 | -78.47615 | 24044 ft | 199 kts | 287° |
| 2026-05-07 14:23 | 37.56260 | -78.49051 | 24044 ft | 200 kts | 288° |
| 2026-05-07 14:23 | 37.57059 | -78.50493 | 24044 ft | 201 kts | 288° |
| 2026-05-07 14:23 | 37.57860 | -78.51942 | 24045 ft | 202 kts | 288° |
| 2026-05-07 14:24 | 37.58663 | -78.53393 | 24043 ft | 202 kts | 288° |
| 2026-05-07 14:24 | 37.59469 | -78.54851 | 24047 ft | 203 kts | 288° |
| 2026-05-07 14:24 | 37.60274 | -78.56311 | 24045 ft | 203 kts | 288° |
| 2026-05-07 14:24 | 37.61082 | -78.57773 | 24045 ft | 203 kts | 288° |
| 2026-05-07 14:25 | 37.61890 | -78.59237 | 24046 ft | 203 kts | 288° |
| 2026-05-07 14:25 | 37.62697 | -78.60703 | 24043 ft | 203 kts | 288° |
| 2026-05-07 14:25 | 37.63503 | -78.62164 | 24047 ft | 203 kts | 288° |
| 2026-05-07 14:25 | 37.64308 | -78.63626 | 24079 ft | 203 kts | 287° |
| 2026-05-07 14:26 | 37.65117 | -78.65093 | 24055 ft | 203 kts | 287° |
| 2026-05-07 14:26 | 37.65923 | -78.66557 | 24057 ft | 203 kts | 287° |
| 2026-05-07 14:26 | 37.66730 | -78.68022 | 24066 ft | 203 kts | 287° |
| 2026-05-07 14:26 | 37.67538 | -78.69488 | 24055 ft | 203 kts | 288° |
| 2026-05-07 14:27 | 37.68342 | -78.70949 | 24053 ft | 202 kts | 287° |
| 2026-05-07 14:27 | 37.69142 | -78.72410 | 24053 ft | 202 kts | 287° |
| 2026-05-07 14:27 | 37.69942 | -78.73868 | 24052 ft | 201 kts | 287° |
| 2026-05-07 14:27 | 37.70736 | -78.75318 | 24050 ft | 201 kts | 287° |
| 2026-05-07 14:28 | 37.71523 | -78.76749 | 24051 ft | 201 kts | 287° |
| 2026-05-07 14:28 | 37.72321 | -78.78203 | 24052 ft | 201 kts | 287° |
| 2026-05-07 14:28 | 37.73120 | -78.79657 | 24071 ft | 201 kts | 287° |
| 2026-05-07 14:28 | 37.73917 | -78.81120 | 24042 ft | 202 kts | 287° |
| 2026-05-07 14:29 | 37.74721 | -78.82581 | 24047 ft | 202 kts | 287° |
| 2026-05-07 14:29 | 37.75519 | -78.84038 | 24047 ft | 201 kts | 287° |
| 2026-05-07 14:29 | 37.76314 | -78.85491 | 24038 ft | 200 kts | 287° |
| 2026-05-07 14:29 | 37.77110 | -78.86948 | 24047 ft | 203 kts | 287° |
| 2026-05-07 14:30 | 37.77911 | -78.88415 | 24046 ft | 202 kts | 287° |
| 2026-05-07 14:30 | 37.78713 | -78.89876 | 24037 ft | 202 kts | 287° |
| 2026-05-07 14:30 | 37.79509 | -78.91334 | 24041 ft | 201 kts | 287° |
| 2026-05-07 14:30 | 37.80286 | -78.92757 | 24063 ft | 197 kts | 287° |
| 2026-05-07 14:31 | 37.80965 | -78.93997 | 24043 ft | 199 kts | 287° |
| 2026-05-07 14:31 | 37.81751 | -78.95443 | 24043 ft | 200 kts | 287° |
| 2026-05-07 14:31 | 37.82541 | -78.96891 | 24045 ft | 200 kts | 287° |
| 2026-05-07 14:31 | 37.83333 | -78.98344 | 24044 ft | 201 kts | 287° |
| 2026-05-07 14:32 | 37.84128 | -78.99798 | 24051 ft | 201 kts | 287° |
| 2026-05-07 14:32 | 37.84926 | -79.01265 | 24041 ft | 203 kts | 287° |
| 2026-05-07 14:32 | 37.85723 | -79.02733 | 24038 ft | 203 kts | 287° |
| 2026-05-07 14:32 | 37.86527 | -79.04201 | 24056 ft | 203 kts | 287° |
| 2026-05-07 14:33 | 37.87322 | -79.05673 | 24053 ft | 201 kts | 286° |
| 2026-05-07 14:33 | 37.88110 | -79.07091 | 24062 ft | 190 kts | 285° |
| 2026-05-07 14:33 | 37.88849 | -79.08459 | 24064 ft | 189 kts | 285° |
| 2026-05-07 14:33 | 37.89593 | -79.09828 | 24076 ft | 190 kts | 286° |
| 2026-05-07 14:34 | 37.90629 | -79.11064 | 24082 ft | 226 kts | 307° |
| 2026-05-07 14:34 | 37.92072 | -79.11975 | 24110 ft | 232 kts | 311° |
| 2026-05-07 14:34 | 37.93555 | -79.12853 | 24082 ft | 237 kts | 311° |
| 2026-05-07 14:34 | 37.95051 | -79.13764 | 24077 ft | 240 kts | 310° |
| 2026-05-07 14:35 | 37.96554 | -79.14694 | 24074 ft | 241 kts | 311° |
| 2026-05-07 14:35 | 37.97553 | -79.15310 | 24034 ft | 242 kts | 311° |
| 2026-05-07 14:35 | 37.99559 | -79.16544 | 24035 ft | 242 kts | 311° |
| 2026-05-07 14:35 | 38.01072 | -79.17477 | 24036 ft | 242 kts | 311° |
| 2026-05-07 14:36 | 38.02584 | -79.18410 | 24043 ft | 241 kts | 311° |
| 2026-05-07 14:36 | 38.04096 | -79.19338 | 24038 ft | 241 kts | 311° |
| 2026-05-07 14:36 | 38.05112 | -79.19966 | 24041 ft | 240 kts | 310° |
| 2026-05-07 14:36 | 38.07106 | -79.21204 | 24044 ft | 241 kts | 311° |
| 2026-05-07 14:37 | 38.08617 | -79.22139 | 24046 ft | 242 kts | 311° |
| 2026-05-07 14:37 | 38.11159 | -79.23710 | 24047 ft | 242 kts | 311° |
| 2026-05-07 14:37 | 38.12674 | -79.24647 | 24048 ft | 242 kts | 311° |
| 2026-05-07 14:38 | 38.14172 | -79.25574 | 24047 ft | 242 kts | 310° |
| 2026-05-07 14:38 | 38.15685 | -79.26511 | 24051 ft | 242 kts | 311° |
| 2026-05-07 14:38 | 38.17198 | -79.27451 | 24055 ft | 243 kts | 310° |
| 2026-05-07 14:38 | 38.18719 | -79.28392 | 24039 ft | 242 kts | 310° |
| 2026-05-07 14:39 | 38.20225 | -79.29324 | 24044 ft | 240 kts | 310° |
| 2026-05-07 14:39 | 38.21730 | -79.30260 | 24048 ft | 241 kts | 310° |
| 2026-05-07 14:39 | 38.23240 | -79.31201 | 24053 ft | 242 kts | 310° |
| 2026-05-07 14:39 | 38.24757 | -79.32143 | 24045 ft | 243 kts | 310° |
| 2026-05-07 14:40 | 38.26275 | -79.33085 | 24044 ft | 243 kts | 310° |
| 2026-05-07 14:40 | 38.27794 | -79.34028 | 24044 ft | 243 kts | 310° |
| 2026-05-07 14:40 | 38.29314 | -79.34970 | 24043 ft | 242 kts | 310° |
| 2026-05-07 14:40 | 38.30808 | -79.35897 | 24040 ft | 242 kts | 310° |
| 2026-05-07 14:41 | 38.32312 | -79.36844 | 24047 ft | 240 kts | 310° |
| 2026-05-07 14:41 | 38.33820 | -79.37786 | 24041 ft | 242 kts | 310° |
| 2026-05-07 14:41 | 38.35344 | -79.38735 | 24039 ft | 244 kts | 310° |
| 2026-05-07 14:41 | 38.36868 | -79.39678 | 24044 ft | 243 kts | 310° |
| 2026-05-07 14:42 | 38.38390 | -79.40628 | 24042 ft | 245 kts | 310° |
| 2026-05-07 14:42 | 38.39917 | -79.41584 | 24038 ft | 244 kts | 310° |
| 2026-05-07 14:42 | 38.41444 | -79.42537 | 24091 ft | 244 kts | 310° |
| 2026-05-07 14:42 | 38.42978 | -79.43498 | 24060 ft | 246 kts | 309° |
| 2026-05-07 14:43 | 38.44518 | -79.44457 | 24054 ft | 246 kts | 310° |
| 2026-05-07 14:43 | 38.46049 | -79.45413 | 24052 ft | 245 kts | 310° |
| 2026-05-07 14:43 | 38.47577 | -79.46368 | 24056 ft | 244 kts | 310° |
| 2026-05-07 14:43 | 38.49100 | -79.47322 | 24050 ft | 243 kts | 309° |
| 2026-05-07 14:44 | 38.50617 | -79.48277 | 24055 ft | 243 kts | 310° |
| 2026-05-07 14:44 | 38.52132 | -79.49228 | 24049 ft | 242 kts | 310° |
| 2026-05-07 14:44 | 38.53638 | -79.50153 | 24055 ft | 238 kts | 309° |
| 2026-05-07 14:44 | 38.55126 | -79.51104 | 24060 ft | 241 kts | 309° |
| 2026-05-07 14:45 | 38.56636 | -79.52054 | 24060 ft | 242 kts | 309° |
| 2026-05-07 14:45 | 38.58132 | -79.52987 | 24062 ft | 242 kts | 309° |
| 2026-05-07 14:45 | 38.59648 | -79.53935 | 24074 ft | 242 kts | 309° |
| 2026-05-07 14:45 | 38.61167 | -79.54895 | 24064 ft | 244 kts | 310° |
| 2026-05-07 14:46 | 38.62691 | -79.55854 | 24069 ft | 245 kts | 309° |
| 2026-05-07 14:46 | 38.64226 | -79.56820 | 24068 ft | 246 kts | 309° |
| 2026-05-07 14:46 | 38.65765 | -79.57786 | 24119 ft | 246 kts | 309° |
| 2026-05-07 14:46 | 38.67296 | -79.58756 | 24085 ft | 245 kts | 309° |
| 2026-05-07 14:47 | 38.68829 | -79.59714 | 24081 ft | 245 kts | 309° |
| 2026-05-07 14:47 | 38.70358 | -79.60673 | 24077 ft | 244 kts | 309° |
| 2026-05-07 14:47 | 38.71880 | -79.61636 | 24081 ft | 244 kts | 309° |
| 2026-05-07 14:47 | 38.73399 | -79.62595 | 24074 ft | 243 kts | 309° |
| 2026-05-07 14:48 | 38.74915 | -79.63551 | 24078 ft | 243 kts | 309° |
| 2026-05-07 14:48 | 38.76426 | -79.64513 | 24084 ft | 243 kts | 309° |
| 2026-05-07 14:48 | 38.77946 | -79.65463 | 24072 ft | 243 kts | 309° |
| 2026-05-07 14:48 | 38.79434 | -79.66399 | 24073 ft | 240 kts | 309° |
| 2026-05-07 14:49 | 38.80926 | -79.67349 | 24067 ft | 240 kts | 309° |
| 2026-05-07 14:49 | 38.82419 | -79.68299 | 24069 ft | 240 kts | 309° |
| 2026-05-07 14:49 | 38.83918 | -79.69246 | 24089 ft | 241 kts | 309° |
| 2026-05-07 14:49 | 38.85429 | -79.70198 | 24094 ft | 241 kts | 309° |
| 2026-05-07 14:50 | 38.86929 | -79.71147 | 24099 ft | 241 kts | 309° |
| 2026-05-07 14:50 | 38.88440 | -79.72108 | 24100 ft | 242 kts | 309° |
| 2026-05-07 14:50 | 38.89953 | -79.73066 | 24148 ft | 242 kts | 309° |
| 2026-05-07 14:50 | 38.91449 | -79.74016 | 24097 ft | 243 kts | 309° |
| 2026-05-07 14:51 | 38.92969 | -79.74980 | 24104 ft | 244 kts | 309° |
| 2026-05-07 14:51 | 38.94494 | -79.75947 | 24093 ft | 244 kts | 309° |
| 2026-05-07 14:51 | 38.96016 | -79.76905 | 24092 ft | 243 kts | 309° |
| 2026-05-07 14:51 | 38.97527 | -79.77870 | 24085 ft | 241 kts | 309° |
| 2026-05-07 14:52 | 38.99031 | -79.78831 | 24090 ft | 241 kts | 309° |
| 2026-05-07 14:52 | 39.00539 | -79.79786 | 24106 ft | 240 kts | 309° |
| 2026-05-07 14:52 | 39.02040 | -79.80740 | 24097 ft | 240 kts | 308° |
| 2026-05-07 14:52 | 39.03539 | -79.81701 | 24097 ft | 241 kts | 309° |
| 2026-05-07 14:53 | 39.05040 | -79.82655 | 24106 ft | 240 kts | 309° |
| 2026-05-07 14:53 | 39.06540 | -79.83610 | 24096 ft | 241 kts | 309° |
| 2026-05-07 14:53 | 39.08039 | -79.84563 | 24095 ft | 239 kts | 308° |
| 2026-05-07 14:53 | 39.09523 | -79.85516 | 24109 ft | 238 kts | 308° |
| 2026-05-07 14:54 | 39.10996 | -79.86461 | 24090 ft | 241 kts | 308° |
| 2026-05-07 14:54 | 39.12501 | -79.87418 | 24088 ft | 242 kts | 309° |
| 2026-05-07 14:54 | 39.14006 | -79.88375 | 24137 ft | 242 kts | 309° |
| 2026-05-07 14:54 | 39.15515 | -79.89341 | 24116 ft | 242 kts | 309° |
| 2026-05-07 14:55 | 39.17026 | -79.90308 | 24082 ft | 242 kts | 309° |
| 2026-05-07 14:55 | 39.18524 | -79.91259 | 24063 ft | 238 kts | 309° |
| 2026-05-07 14:55 | 39.19986 | -79.92181 | 24097 ft | 232 kts | 307° |
| 2026-05-07 14:55 | 39.21427 | -79.93126 | 24104 ft | 234 kts | 308° |
| 2026-05-07 14:56 | 39.22897 | -79.94082 | 24094 ft | 239 kts | 309° |
| 2026-05-07 14:56 | 39.24393 | -79.95031 | 24098 ft | 240 kts | 309° |
| 2026-05-07 14:56 | 39.25888 | -79.95977 | 24100 ft | 238 kts | 309° |
| 2026-05-07 14:56 | 39.27372 | -79.96932 | 24095 ft | 238 kts | 309° |